Bubiyan, Kuwait

3:01 PM AST on September 20, 2014 (GMT +0300)
Abadan | Change Station
CLOSE
Current Station
Airport
Location: Abadan,
Elevation: 10 ft
Nearby Weather Stations

Elev 10 ft 30.37 °N, 48.25 °E | Updated 1 hour ago

Clear
Clear
106 °F
Feels Like 106 °F
N
9
Wind Variable Wind from NNW

Today
High -- | Low -- °F
--% Chance of Precip.
Yesterday
High -- | Low -- °F
Precip. -- in
5:33 AM 5:46 PM
Waning Crescent, 13% visible
Pressure 29.68 in
Visibility -9999.0 miles
Clouds
Dew Point 41 °F
Humidity 11%
Rainfall 0.00 in
Snow Depth Not available.
UV Not available.
Pollen Not available.
Air Quality Not available.
Flu Activity Not available.
METAR OIAA 201100Z 34008KT CAVOK 41/05 Q1005

More Conditions Fewer Conditions

Pressure 29.68 in
Visibility -9999.0 miles
Clouds
Dew Point 41 °F
Humidity 11%
Rainfall 0.00 in
Snow Depth Not available.
UV Not available.
Pollen Not available.
Air Quality Not available.
Flu Activity Not available.
METAR OIAA 201100Z 34008KT CAVOK 41/05 Q1005

More Conditions Fewer Conditions

10-Day Weather Forecast

Almanac

Astronomy

Sep. 20, 2014 Rise Set
Actual Time 5:33 AM AST 5:46 PM AST
Civil Twilight 5:09 AM AST 6:09 PM AST
Nautical Twilight 4:41 AM AST 6:37 PM AST
Astronomical Twilight 4:13 AM AST 7:05 PM AST
Moon 2:05 AM AST 3:25 PM AST
Length of Visible Light 13h 00m
Length of Day
12h 12m
Tomorrow will be 1m 47s shorter.
Waning Crescent, 13% of the Moon is Illuminated
Today
Waning Crescent
Sep 24
New
Oct 1
First Quarter
Oct 8
Full
Oct 15
Last Quarter

Yesterday's Extremes

Country Highs Country Lows

Community

WunderPhotos

Upload Photos

1,754,832 photos uploaded!

Nearby

Snow Depth

Not available.

Earthquake Activity

City Distance Mag. Time & Date
No recent earthquake activity has been reported nearby.
Minimum magnitude displayed is 2.5.

Coastal Water Temperatures

Place Temperature
No Stations Reporting

Nearby Weather Stations